Time;durP1;ratioP1;P1;durP2;ratioP2;P2;SDS_P1;SDS_P2;PMS_P1;PMS_P2;Temp;Humidity;BMP_temperature;BMP_pressure;BME280_temperature;BME280_humidity;BME280_pressure;Samples;Min_cycle;Max_cycle;Signal;HPM_P1;HPM_P2
2020/12/28 00:00:51;;;;;;;0.60;0.40;;;4.20;99.90;;;4.74;89.84;96853.06;4976014;28;20131;-87
2020/12/28 00:03:17;;;;;;;0.50;0.50;;;4.20;99.90;;;4.78;89.60;96856.59;4975588;28;20083;-85
2020/12/28 00:05:42;;;;;;;0.30;0.30;;;4.20;99.90;;;4.71;89.74;96859.41;4976320;28;20027;-83
2020/12/28 00:08:08;;;;;;;1.23;0.50;;;4.20;99.90;;;4.82;89.72;96848.25;4975236;28;20031;-87
2020/12/28 00:10:34;;;;;;;0.40;0.40;;;4.20;99.90;;;4.64;89.54;96846.47;4975320;28;20037;-85
2020/12/28 00:13:03;;;;;;;2.13;0.40;;;4.20;99.90;;;4.65;90.12;96847.25;4975899;28;20387;-86
2020/12/28 00:15:29;;;;;;;0.75;0.40;;;4.20;99.90;;;4.68;89.57;96841.69;4975021;28;20035;-82
2020/12/28 00:18:02;;;;;;;1.25;0.50;;;4.20;99.90;;;4.77;90.27;96838.41;4976506;28;20031;-84
2020/12/28 00:20:31;;;;;;;1.48;0.82;;;4.20;99.90;;;4.68;89.51;96832.59;4974130;28;20035;-85
2020/12/28 00:22:58;;;;;;;0.80;0.50;;;4.20;99.90;;;4.61;90.18;96830.69;4975063;28;20041;-82
2020/12/28 00:25:28;;;;;;;0.65;0.60;;;4.10;99.90;;;4.78;90.37;96826.94;4975497;28;20077;-83
2020/12/28 00:27:56;;;;;;;0.50;0.50;;;4.10;99.90;;;4.70;89.50;96814.41;4975392;28;20031;-85
2020/12/28 00:30:23;;;;;;;1.50;0.40;;;4.10;99.90;;;4.74;90.11;96806.88;4976772;28;20030;-86
2020/12/28 00:32:49;;;;;;;0.80;0.60;;;4.10;99.90;;;4.64;90.69;96804.22;4974791;28;20127;-84
2020/12/28 00:35:15;;;;;;;0.52;0.43;;;4.10;99.90;;;4.57;90.40;96818.09;4991186;28;20062;-86
2020/12/28 00:37:41;;;;;;;0.70;0.40;;;4.10;99.90;;;4.60;90.62;96823.59;4976180;28;20038;-86
2020/12/28 00:40:10;;;;;;;0.63;0.50;;;4.00;99.90;;;4.72;90.49;96825.03;4980881;28;20090;-81
2020/12/28 00:42:37;;;;;;;0.60;0.55;;;4.10;99.90;;;4.61;90.11;96825.19;5012030;28;20058;-81
2020/12/28 00:45:07;;;;;;;1.15;0.40;;;4.10;99.90;;;4.61;89.49;96827.16;4997837;28;20034;-84
2020/12/28 00:47:33;;;;;;;0.52;0.50;;;4.10;99.90;;;4.67;89.69;96811.69;4996416;28;20105;-84
2020/12/28 00:49:59;;;;;;;0.70;0.50;;;4.00;99.90;;;4.57;89.98;96801.53;5009182;28;20286;-87
2020/12/28 00:52:25;;;;;;;0.93;0.60;;;4.10;99.90;;;4.60;90.05;96809.78;4993169;28;20081;-85
2020/12/28 00:54:50;;;;;;;0.50;0.40;;;4.00;99.90;;;4.67;89.52;96798.66;4991432;28;20529;-85
2020/12/28 00:57:16;;;;;;;0.95;0.70;;;4.00;99.90;;;4.57;89.54;96798.75;4976721;28;20114;-83
2020/12/28 00:59:43;;;;;;;0.52;0.28;;;4.00;99.90;;;4.53;89.81;96804.31;4976453;28;20102;-83
2020/12/28 01:02:09;;;;;;;0.90;0.60;;;4.00;99.90;;;4.55;90.58;96798.41;4975400;28;20509;-86
2020/12/28 01:04:35;;;;;;;0.50;0.45;;;4.00;99.90;;;4.54;90.27;96792.09;4978852;28;20094;-83
2020/12/28 01:07:01;;;;;;;0.43;0.40;;;4.00;99.90;;;4.56;90.09;96789.69;4995519;28;20035;-83
2020/12/28 01:09:26;;;;;;;0.60;0.40;;;4.00;99.90;;;4.67;89.35;96784.84;4995682;28;20038;-80
2020/12/28 01:11:52;;;;;;;0.30;0.30;;;4.00;99.90;;;4.64;89.46;96788.44;4996578;28;20026;-83
2020/12/28 01:14:18;;;;;;;0.82;0.45;;;4.00;99.90;;;4.61;89.89;96785.69;4996721;28;20019;-81
2020/12/28 01:16:44;;;;;;;0.60;0.40;;;4.00;99.90;;;4.72;89.09;96803.72;4985652;28;20479;-86
2020/12/28 01:19:11;;;;;;;0.75;0.50;;;4.00;99.90;;;4.74;88.88;96797.78;4979977;28;20035;-82
2020/12/28 01:21:36;;;;;;;0.43;0.38;;;4.00;99.90;;;4.79;89.25;96805.63;4993664;28;20031;-80
2020/12/28 01:24:03;;;;;;;0.40;0.40;;;4.10;99.90;;;4.70;89.41;96797.03;4995953;28;20031;-82
2020/12/28 01:26:28;;;;;;;1.40;0.50;;;4.10;99.90;;;4.68;89.13;96804.97;4988282;28;20129;-84
2020/12/28 01:28:54;;;;;;;0.75;0.47;;;4.20;99.90;;;4.87;88.91;96807.13;4975164;28;20031;-85
2020/12/28 01:31:20;;;;;;;0.52;0.50;;;4.20;99.90;;;4.82;89.20;96804.78;4994138;28;20030;-84
2020/12/28 01:33:47;;;;;;;0.52;0.50;;;4.20;99.90;;;4.81;89.19;96806.00;4996074;28;20058;-81
2020/12/28 01:36:13;;;;;;;0.68;0.38;;;4.20;99.90;;;4.73;89.47;96810.03;4996056;28;20046;-83
2020/12/28 01:38:39;;;;;;;0.55;0.40;;;4.20;99.90;;;4.81;89.16;96806.00;4996132;28;20026;-82
2020/12/28 01:41:04;;;;;;;0.40;0.40;;;4.20;99.90;;;4.75;89.18;96811.19;4997224;28;20035;-86
2020/12/28 01:43:32;;;;;;;0.60;0.43;;;4.20;99.90;;;4.74;89.25;96812.41;4974885;28;20401;-85
2020/12/28 01:46:00;;;;;;;1.10;0.68;;;4.20;99.90;;;4.77;89.53;96817.09;4990226;28;20088;-82
2020/12/28 01:48:30;;;;;;;0.50;0.50;;;4.20;99.90;;;4.81;89.50;96819.03;4973095;28;20482;-85
2020/12/28 01:50:58;;;;;;;1.30;0.40;;;4.20;99.90;;;4.72;89.65;96809.25;4989091;28;20039;-84
2020/12/28 01:53:25;;;;;;;0.75;0.50;;;4.10;99.90;;;4.75;90.64;96822.25;4973162;28;20042;-84
2020/12/28 01:56:05;;;;;;;0.70;0.68;;;4.20;99.90;;;4.71;90.28;96813.22;4974323;28;20121;-84
2020/12/28 01:58:32;;;;;;;0.80;0.50;;;4.20;99.90;;;4.70;90.00;96808.09;4974375;28;20027;-83
2020/12/28 02:00:59;;;;;;;0.70;0.50;;;4.20;99.90;;;4.79;89.42;96811.94;4974497;28;20023;-83
2020/12/28 02:03:26;;;;;;;0.35;0.35;;;4.20;99.90;;;4.90;89.46;96809.06;4972911;28;20027;-84
2020/12/28 02:05:52;;;;;;;0.50;0.47;;;4.30;99.90;;;4.81;89.37;96802.44;4973124;28;20089;-86
2020/12/28 02:08:19;;;;;;;0.30;0.30;;;4.20;99.90;;;4.92;89.24;96811.38;4974102;28;20043;-85
2020/12/28 02:10:46;;;;;;;0.70;0.50;;;4.20;99.90;;;4.82;90.02;96815.09;4973319;28;20039;-85
2020/12/28 02:13:12;;;;;;;0.52;0.40;;;4.20;99.90;;;4.83;89.85;96814.66;4972790;28;20054;-83
2020/12/28 02:15:38;;;;;;;1.38;0.40;;;4.20;99.90;;;4.77;89.81;96822.63;4972855;28;20030;-83
2020/12/28 02:18:04;;;;;;;0.30;0.30;;;4.20;99.90;;;4.81;89.66;96817.06;4989605;28;20031;-83
2020/12/28 02:20:31;;;;;;;0.90;0.60;;;4.20;99.90;;;4.74;90.15;96825.44;4973433;28;20034;-81
2020/12/28 02:22:57;;;;;;;1.10;0.65;;;4.20;99.90;;;4.80;89.62;96829.31;4974189;28;20163;-84
2020/12/28 02:25:23;;;;;;;1.23;0.60;;;4.20;99.90;;;4.85;89.55;96828.84;4988824;28;20479;-85
2020/12/28 02:27:49;;;;;;;0.43;0.40;;;4.30;99.90;;;4.79;89.71;96824.97;4974090;28;20079;-83
2020/12/28 02:30:14;;;;;;;0.60;0.50;;;4.20;99.90;;;4.87;88.52;96820.16;4972807;28;20395;-83
2020/12/28 02:32:40;;;;;;;0.93;0.50;;;4.20;99.90;;;4.84;89.14;96820.97;4974433;28;20030;-83
2020/12/28 02:35:06;;;;;;;1.38;0.30;;;4.30;99.90;;;4.98;88.33;96818.81;4973569;28;20034;-84
2020/12/28 02:37:32;;;;;;;0.30;0.30;;;4.30;99.90;;;4.88;89.05;96816.19;4974279;28;20423;-86
2020/12/28 02:39:58;;;;;;;0.20;0.20;;;4.30;99.90;;;4.92;89.69;96811.38;4988949;28;20094;-85
2020/12/28 02:42:24;;;;;;;0.30;0.30;;;4.40;99.90;;;4.94;88.87;96807.03;4973179;28;20116;-85
2020/12/28 02:44:54;;;;;;;0.40;0.40;;;4.30;99.90;;;4.85;90.16;96811.50;4976384;28;20035;-83
2020/12/28 02:47:20;;;;;;;0.55;0.43;;;4.30;99.90;;;4.91;89.90;96812.59;4976901;28;20098;-84
2020/12/28 02:49:46;;;;;;;3.03;0.63;;;4.30;99.90;;;4.82;90.60;96807.56;4977838;28;20125;-85
2020/12/28 02:52:13;;;;;;;2.63;0.60;;;4.20;99.90;;;4.79;91.24;96808.38;4976313;28;20034;-84
2020/12/28 02:54:38;;;;;;;1.42;0.43;;;4.20;99.90;;;4.91;90.26;96807.88;4993923;28;20047;-85
2020/12/28 02:57:04;;;;;;;1.67;0.50;;;4.20;99.90;;;4.74;91.11;96806.88;4977226;28;20035;-86
2020/12/28 02:59:30;;;;;;;1.77;0.47;;;4.20;99.90;;;4.82;90.78;96815.09;4976887;28;20447;-87
2020/12/28 03:01:56;;;;;;;0.57;0.50;;;4.20;99.90;;;4.93;90.40;96813.75;4976606;28;20031;-85
2020/12/28 03:04:23;;;;;;;1.15;0.60;;;4.30;99.90;;;4.82;90.17;96815.84;4992678;28;20034;-84
2020/12/28 03:06:49;;;;;;;0.60;0.60;;;4.30;99.90;;;4.93;90.09;96807.44;4977358;28;20039;-85
2020/12/28 03:09:14;;;;;;;0.90;0.52;;;4.20;99.90;;;4.75;90.27;96816.72;4976509;28;20031;-86
2020/12/28 03:11:40;;;;;;;0.55;0.40;;;4.30;99.90;;;4.82;90.18;96820.63;4976623;28;20030;-84
2020/12/28 03:14:06;;;;;;;1.67;0.40;;;4.30;99.90;;;4.76;90.22;96826.56;4977433;28;20027;-82
2020/12/28 03:16:32;;;;;;;0.57;0.50;;;4.30;99.90;;;4.83;90.38;96816.63;4992633;28;20038;-84
2020/12/28 03:18:58;;;;;;;0.85;0.40;;;4.30;99.90;;;4.83;90.09;96813.88;4978905;28;20517;-86
2020/12/28 03:21:25;;;;;;;0.90;0.50;;;4.30;99.90;;;4.77;90.33;96814.34;4981578;28;20046;-85
2020/12/28 03:23:51;;;;;;;0.82;0.50;;;4.20;99.90;;;4.77;89.92;96813.53;4995145;28;20173;-86
2020/12/28 03:26:17;;;;;;;1.38;0.40;;;4.20;99.90;;;4.76;89.77;96821.06;4978589;28;20062;-85
2020/12/28 03:28:42;;;;;;;1.17;0.50;;;4.20;99.90;;;4.71;90.28;96827.03;4977918;28;20468;-87
2020/12/28 03:31:08;;;;;;;1.02;0.45;;;4.20;99.90;;;4.85;90.42;96828.84;4980186;28;20039;-86
2020/12/28 03:33:34;;;;;;;0.52;0.43;;;4.20;99.90;;;4.98;89.69;96831.84;4980679;28;20054;-86
2020/12/28 03:36:00;;;;;;;0.70;0.52;;;4.30;99.90;;;5.00;89.22;96826.72;4979828;28;20057;-85
2020/12/28 03:38:26;;;;;;;0.70;0.40;;;4.30;99.90;;;4.90;89.30;96828.41;4980571;28;20023;-84
2020/12/28 03:40:52;;;;;;;0.65;0.55;;;4.20;99.90;;;4.77;89.74;96830.91;4982010;28;20035;-84
2020/12/28 03:43:18;;;;;;;1.25;0.60;;;4.20;99.90;;;4.83;89.75;96836.78;4995752;28;20045;-83
2020/12/28 03:45:44;;;;;;;0.57;0.40;;;4.20;99.90;;;4.79;90.00;96838.78;4985237;28;20030;-82
2020/12/28 03:48:09;;;;;;;0.60;0.50;;;4.20;99.90;;;4.89;89.77;96831.56;4975022;28;20035;-80
2020/12/28 03:50:35;;;;;;;0.75;0.70;;;4.30;99.90;;;4.86;90.03;96835.94;4974880;28;20043;-83
2020/12/28 03:53:01;;;;;;;0.52;0.40;;;4.20;99.90;;;4.75;89.81;96843.59;4974200;28;20038;-84
2020/12/28 03:55:27;;;;;;;1.30;0.50;;;4.30;99.90;;;4.83;89.67;96847.81;4975667;28;20046;-84
2020/12/28 03:57:53;;;;;;;0.30;0.30;;;4.20;99.90;;;4.88;89.89;96849.38;4974413;28;20041;-81
2020/12/28 04:00:18;;;;;;;0.85;0.60;;;4.20;99.90;;;4.68;90.67;96851.94;4974527;28;20094;-83
2020/12/28 04:02:44;;;;;;;1.35;0.50;;;4.20;99.90;;;4.81;90.06;96843.91;4974684;28;20113;-84
2020/12/28 04:05:10;;;;;;;1.70;0.73;;;4.20;99.90;;;4.65;90.63;96847.25;4976562;28;20038;-87
2020/12/28 04:07:36;;;;;;;0.77;0.40;;;4.20;99.90;;;4.69;91.07;96851.53;4993387;28;20402;-83
2020/12/28 04:10:03;;;;;;;1.65;0.57;;;4.20;99.90;;;4.61;91.31;96855.56;4974308;28;20042;-83
2020/12/28 04:12:29;;;;;;;0.75;0.63;;;4.20;99.90;;;4.54;91.39;96852.09;4973880;28;20043;-81
2020/12/28 04:14:55;;;;;;;0.68;0.50;;;4.10;99.90;;;4.54;91.38;96854.84;4973669;28;20042;-83
2020/12/28 04:17:20;;;;;;;1.27;0.80;;;4.10;99.90;;;4.53;90.84;96858.78;4989788;28;20039;-83
2020/12/28 04:19:46;;;;;;;0.80;0.50;;;4.10;99.90;;;4.65;90.63;96867.38;4973767;28;20030;-80
2020/12/28 04:22:12;;;;;;;1.00;0.60;;;4.10;99.90;;;4.77;90.33;96860.53;4976640;28;20053;-84
2020/12/28 04:24:38;;;;;;;0.60;0.40;;;4.10;99.90;;;4.64;90.31;96857.50;4976765;28;20035;-84
2020/12/28 04:27:04;;;;;;;0.82;0.40;;;4.10;99.90;;;4.60;90.37;96845.69;4974335;28;20035;-81
2020/12/28 04:29:29;;;;;;;0.40;0.40;;;4.10;99.90;;;4.69;90.25;96842.44;4973396;28;20039;-81
2020/12/28 04:31:55;;;;;;;0.93;0.60;;;4.10;99.90;;;4.69;90.12;96834.94;4974693;28;20034;-82
2020/12/28 04:34:22;;;;;;;0.82;0.50;;;4.10;99.90;;;4.85;89.96;96830.84;4973765;28;20045;-81
2020/12/28 04:36:48;;;;;;;0.40;0.40;;;4.10;99.90;;;4.76;89.69;96829.34;4975201;28;20534;-81
2020/12/28 04:39:13;;;;;;;0.50;0.40;;;4.10;99.90;;;4.62;90.23;96848.81;4973616;28;20085;-80
2020/12/28 04:41:39;;;;;;;0.93;0.63;;;4.10;99.90;;;4.58;89.72;96850.06;4973631;28;20030;-81
2020/12/28 04:44:05;;;;;;;0.90;0.38;;;4.10;99.90;;;4.70;89.82;96850.34;4976060;28;20030;-83
2020/12/28 04:46:32;;;;;;;0.50;0.50;;;4.10;99.90;;;4.62;90.38;96859.88;4976898;28;20086;-82
2020/12/28 04:48:58;;;;;;;0.80;0.60;;;4.10;99.90;;;4.64;89.89;96860.28;4975999;28;20045;-84
2020/12/28 04:51:25;;;;;;;0.57;0.50;;;4.10;99.90;;;4.58;90.23;96856.41;4977498;28;20054;-81
2020/12/28 04:53:53;;;;;;;0.55;0.40;;;4.10;99.90;;;4.62;90.14;96864.66;4973128;28;20031;-82
2020/12/28 04:56:20;;;;;;;0.47;0.47;;;4.00;99.90;;;4.62;90.40;96851.59;4974352;28;20030;-82
2020/12/28 04:58:47;;;;;;;1.13;0.60;;;4.00;99.90;;;4.58;90.69;96850.06;4973035;28;20436;-82
2020/12/28 05:01:14;;;;;;;0.95;0.60;;;3.90;99.90;;;4.52;90.64;96844.22;4974435;28;20158;-81
2020/12/28 05:03:41;;;;;;;0.52;0.50;;;3.90;99.90;;;4.41;91.14;96849.06;4973196;28;20030;-82
2020/12/28 05:06:08;;;;;;;0.40;0.30;;;3.90;99.90;;;4.42;91.33;96858.91;4974768;28;20054;-84
2020/12/28 05:08:35;;;;;;;0.45;0.45;;;3.80;99.90;;;4.33;91.33;96858.63;4976313;28;20030;-83
2020/12/28 05:11:14;;;;;;;0.47;0.47;;;3.80;99.90;;;4.29;91.93;96862.59;4973359;28;20038;-81
2020/12/28 05:13:47;;;;;;;1.25;0.50;;;3.70;99.90;;;4.20;91.79;96860.31;4975226;28;20462;-83
2020/12/28 05:16:14;;;;;;;0.75;0.40;;;3.70;99.90;;;4.19;91.26;96855.97;4974229;28;20471;-83
2020/12/28 05:18:40;;;;;;;0.50;0.50;;;3.70;99.90;;;4.22;91.66;96852.38;4972880;28;20058;-84
2020/12/28 05:21:06;;;;;;;1.33;0.65;;;3.60;99.90;;;4.29;91.15;96857.84;4972738;28;20085;-80
2020/12/28 05:23:33;;;;;;;0.80;0.50;;;3.60;99.90;;;4.08;92.21;96852.50;4989769;28;20030;-83
2020/12/28 05:26:05;;;;;;;0.88;0.70;;;3.60;99.90;;;4.11;91.81;96848.94;4974495;28;20501;-81
2020/12/28 05:28:37;;;;;;;0.70;0.50;;;3.60;99.90;;;4.09;92.33;96863.16;4973413;28;20126;-81
2020/12/28 05:31:06;;;;;;;0.70;0.60;;;3.60;99.90;;;4.21;91.46;96859.09;4972916;28;20505;-81
2020/12/28 05:33:35;;;;;;;0.60;0.52;;;3.60;99.90;;;4.20;91.31;96854.78;4974524;28;20464;-81
2020/12/28 05:36:02;;;;;;;0.68;0.60;;;3.60;99.90;;;4.23;91.02;96859.50;4991605;28;20107;-82
2020/12/28 05:38:32;;;;;;;1.02;0.60;;;3.60;99.90;;;4.15;92.15;96863.50;4976079;28;20130;-83
2020/12/28 05:41:05;;;;;;;0.85;0.55;;;3.60;99.90;;;4.09;91.60;96867.88;4974887;28;20085;-81
2020/12/28 05:43:32;;;;;;;0.68;0.50;;;3.50;99.90;;;4.16;91.03;96865.84;4974059;28;20069;-80
2020/12/28 05:45:59;;;;;;;0.40;0.40;;;3.50;99.90;;;4.07;91.02;96873.03;4975119;28;20039;-82
2020/12/28 05:48:26;;;;;;;1.10;0.50;;;3.50;99.90;;;4.13;90.89;96874.94;4975557;28;20034;-84
2020/12/28 05:50:58;;;;;;;0.60;0.60;;;3.50;99.90;;;4.03;91.20;96877.78;4975899;28;20483;-82
2020/12/28 05:53:26;;;;;;;0.40;0.40;;;3.50;99.90;;;4.00;91.18;96871.09;5020524;23;20056;-80
2020/12/28 05:55:53;;;;;;;0.60;0.60;;;3.50;99.90;;;4.04;91.06;96880.16;5032380;28;20025;-79
2020/12/28 05:58:21;;;;;;;1.00;0.90;;;3.40;99.90;;;4.01;91.32;96877.41;5030841;28;20028;-81
2020/12/28 06:00:50;;;;;;;0.77;0.77;;;3.40;99.90;;;4.11;91.17;96884.84;5032383;28;20480;-81
2020/12/28 06:03:28;;;;;;;0.77;0.70;;;3.50;99.90;;;4.20;90.90;96887.91;5030762;28;20021;-78
2020/12/28 06:05:55;;;;;;;1.63;0.68;;;3.50;99.90;;;4.17;91.07;96888.72;5030894;28;20041;-81
2020/12/28 06:08:22;;;;;;;0.77;0.75;;;3.50;99.90;;;4.27;90.43;96884.31;5032402;28;20029;-82
2020/12/28 06:10:49;;;;;;;0.90;0.90;;;3.60;99.90;;;4.33;90.41;96885.44;5030892;28;20063;-80
2020/12/28 06:13:25;;;;;;;2.78;1.35;;;3.60;99.90;;;4.30;90.86;96889.81;5030765;28;20492;-82
2020/12/28 06:16:23;;;;;;;1.10;0.80;;;3.60;99.90;;;4.31;90.72;96885.84;5032507;28;20048;-80
2020/12/28 06:18:58;;;;;;;1.33;1.00;;;3.60;99.90;;;4.35;90.43;96897.66;5035046;28;20037;-81
2020/12/28 06:21:36;;;;;;;1.45;1.00;;;3.60;99.90;;;4.44;90.25;96897.16;5035039;28;20036;-82
2020/12/28 06:24:03;;;;;;;2.90;1.15;;;3.70;99.90;;;4.46;90.54;96894.81;5035130;28;20034;-80
2020/12/28 06:26:30;;;;;;;1.80;1.23;;;3.70;99.90;;;4.33;91.25;96893.72;5035517;28;20029;-81
2020/12/28 06:29:07;;;;;;;2.20;1.40;;;3.70;99.90;;;4.36;91.22;96901.19;5038046;28;20112;-80
2020/12/28 06:31:35;;;;;;;1.85;1.40;;;3.70;99.90;;;4.43;90.86;96904.66;5036841;28;20087;-80
2020/12/28 06:34:01;;;;;;;1.42;1.15;;;3.70;99.90;;;4.42;91.20;96903.13;5037722;28;20033;-80
2020/12/28 06:36:27;;;;;;;1.42;1.27;;;3.70;99.90;;;4.41;91.49;96904.31;5035355;28;20055;-80
2020/12/28 06:39:00;;;;;;;2.10;1.20;;;3.70;99.90;;;4.46;91.17;96903.88;5035092;28;20057;-78
2020/12/28 06:41:30;;;;;;;2.88;1.42;;;3.70;99.90;;;4.50;91.31;96909.34;5035288;28;20392;-83
2020/12/28 06:44:02;;;;;;;2.10;1.40;;;3.70;99.90;;;4.46;91.01;96914.94;5036385;28;20512;-80
2020/12/28 06:46:31;;;;;;;3.67;1.52;;;3.70;99.90;;;4.52;90.54;96907.78;5036619;28;20026;-83
2020/12/28 06:48:58;;;;;;;1.80;1.40;;;3.70;99.90;;;4.47;91.24;96916.47;5035523;28;20067;-83
2020/12/28 06:51:27;;;;;;;2.67;1.50;;;3.70;99.90;;;4.54;90.93;96927.47;5036001;28;20033;-81
2020/12/28 06:53:57;;;;;;;1.45;1.17;;;3.80;99.90;;;4.48;90.93;96936.59;5036253;28;20065;-81
2020/12/28 06:56:26;;;;;;;1.65;1.35;;;3.80;99.90;;;4.48;91.31;96929.09;5037079;28;20033;-84
2020/12/28 06:59:01;;;;;;;1.65;1.42;;;3.80;99.90;;;4.51;91.37;96933.81;5036322;28;20022;-81
2020/12/28 07:01:28;;;;;;;1.98;1.42;;;3.80;99.90;;;4.43;91.50;96928.78;5035093;28;20026;-82
2020/12/28 07:03:59;;;;;;;3.47;1.45;;;3.80;99.90;;;4.41;91.08;96934.69;5035139;28;20048;-83
2020/12/28 07:06:24;;;;;;;3.20;1.48;;;3.80;99.90;;;4.42;91.90;96933.50;5035373;28;20068;-84
2020/12/28 07:08:50;;;;;;;2.97;1.33;;;3.80;99.90;;;4.45;91.30;96935.44;5039739;28;20029;-82
2020/12/28 07:11:19;;;;;;;2.15;1.10;;;3.90;99.90;;;4.44;91.45;96933.88;5047265;28;20045;-82
2020/12/28 07:13:47;;;;;;;3.47;1.02;;;3.80;99.90;;;4.43;91.12;96935.06;5046135;28;20053;-80
2020/12/28 07:16:13;;;;;;;1.17;0.77;;;3.80;99.90;;;4.56;89.99;96930.59;5053877;28;20052;-81
2020/12/28 07:18:39;;;;;;;1.30;0.73;;;3.90;99.90;;;4.59;89.95;96938.06;5045856;28;20029;-80
2020/12/28 07:21:07;;;;;;;1.52;0.90;;;3.90;99.90;;;4.50;89.93;96932.25;5034104;28;20075;-81
2020/12/28 07:23:34;;;;;;;2.35;1.02;;;3.80;99.90;;;4.40;90.20;96940.63;5033767;28;20053;-79
2020/12/28 07:26:10;;;;;;;1.02;0.80;;;3.70;99.90;;;4.27;90.34;96934.78;5035361;28;20511;-79
2020/12/28 07:28:40;;;;;;;2.17;0.95;;;3.70;99.90;;;4.18;90.84;96945.50;5033676;28;20060;-82
2020/12/28 07:31:07;;;;;;;1.80;1.02;;;3.70;99.90;;;4.19;90.62;96945.13;5033971;28;20043;-81
2020/12/28 07:33:44;;;;;;;1.52;0.80;;;3.70;99.90;;;4.14;91.15;96942.00;5034250;28;20079;-82
2020/12/28 07:36:14;;;;;;;1.02;0.68;;;3.60;99.90;;;4.10;90.86;96944.00;5033903;28;20041;-79
2020/12/28 07:38:48;;;;;;;2.05;0.85;;;3.50;99.90;;;4.15;90.49;96949.09;5033684;28;20137;-82
2020/12/28 07:41:16;;;;;;;0.80;0.63;;;3.50;99.90;;;3.99;91.08;96937.75;5034255;28;20026;-84
2020/12/28 07:43:57;;;;;;;1.17;0.75;;;3.50;99.90;;;4.03;91.08;96944.03;5034784;28;20509;-81
2020/12/28 07:46:32;;;;;;;1.45;0.80;;;3.50;99.90;;;3.96;90.61;96944.09;5040055;28;20036;-81
2020/12/28 07:49:17;;;;;;;1.70;1.05;;;3.40;99.90;;;3.93;90.71;96944.91;5033169;28;20025;-79
2020/12/28 07:51:53;;;;;;;1.85;0.90;;;3.30;99.90;;;3.89;90.85;96941.38;5034227;28;20042;-78
2020/12/28 07:54:26;;;;;;;2.67;1.40;;;3.30;99.90;;;3.90;91.01;96951.22;5033512;28;20404;-79
2020/12/28 07:57:05;;;;;;;1.23;0.60;;;3.20;99.90;;;3.81;91.04;96946.16;5034282;28;20033;-81
2020/12/28 07:59:53;;;;;;;1.35;0.80;;;3.20;99.90;;;3.82;91.36;96958.00;5033675;28;20100;-82
2020/12/28 08:03:09;;;;;;;1.35;1.00;;;3.10;99.90;;;3.86;91.17;96958.72;5040884;28;20112;-79
2020/12/28 08:05:36;;;;;;;2.40;1.13;;;3.10;99.90;;;3.74;91.63;96957.22;5033574;28;20029;-79
2020/12/28 08:08:02;;;;;;;1.20;1.00;;;3.10;99.90;;;3.76;91.73;96963.13;5033255;28;20033;-81
2020/12/28 08:10:28;;;;;;;1.42;1.10;;;3.00;99.90;;;3.74;91.76;96968.25;5033852;28;20119;-81
2020/12/28 08:12:59;;;;;;;2.88;1.20;;;3.00;99.90;;;3.75;92.06;96971.81;5034174;28;20481;-82
2020/12/28 08:15:32;;;;;;;1.80;1.25;;;3.10;99.90;;;3.78;91.88;96969.03;5034058;28;20116;-80
2020/12/28 08:18:12;;;;;;;3.63;1.40;;;3.10;99.90;;;3.81;92.04;96962.72;5036392;28;20113;-81
2020/12/28 08:20:40;;;;;;;1.23;0.90;;;3.10;99.90;;;3.83;91.90;96967.81;5035614;28;20079;-81
2020/12/28 08:23:07;;;;;;;1.95;1.08;;;3.20;99.90;;;3.91;91.53;96963.84;5035393;28;20022;-81
2020/12/28 08:25:35;;;;;;;1.58;1.20;;;3.20;99.90;;;4.01;90.88;96952.75;5033609;28;20028;-81
2020/12/28 08:28:03;;;;;;;2.20;1.00;;;3.20;99.90;;;3.96;90.66;96952.38;5032892;28;20036;-81
2020/12/28 08:30:31;;;;;;;1.25;1.00;;;3.20;99.90;;;3.98;90.73;96955.53;5037873;28;20021;-82
2020/12/28 08:33:02;;;;;;;1.88;1.17;;;3.20;99.90;;;3.91;90.65;96963.84;5033690;28;20469;-79
2020/12/28 08:35:30;;;;;;;1.58;1.15;;;3.10;99.90;;;3.83;91.25;96963.09;5035168;28;20026;-80
2020/12/28 08:37:56;;;;;;;2.72;1.15;;;3.10;99.90;;;3.85;90.98;96968.22;5033665;28;20025;-81
2020/12/28 08:40:24;;;;;;;1.73;0.90;;;3.10;99.90;;;3.73;91.57;96970.22;5031239;28;20158;-82
2020/12/28 08:42:57;;;;;;;3.80;1.00;;;3.10;99.90;;;3.98;91.11;96972.09;5034214;28;20037;-82
2020/12/28 08:45:27;;;;;;;1.55;1.08;;;3.20;99.90;;;4.21;90.14;96969.56;5034043;28;20030;-82
2020/12/28 08:47:57;;;;;;;1.70;1.25;;;3.40;99.90;;;4.39;89.27;96969.44;5032594;28;20112;-82
2020/12/28 08:50:26;;;;;;;1.95;0.77;;;3.60;99.90;;;4.55;88.64;96973.25;5033045;28;20485;-82
2020/12/28 08:52:55;;;;;;;2.45;0.88;;;3.80;99.90;;;4.63;87.44;96965.69;5032563;28;20025;-82
2020/12/28 08:55:22;;;;;;;0.80;0.70;;;4.00;99.90;;;4.82;87.62;96972.66;5032399;28;20029;-80
2020/12/28 08:58:01;;;;;;;1.02;0.82;;;4.10;99.90;;;4.96;86.53;96976.06;5036788;28;20417;-87
2020/12/28 09:00:28;;;;;;;0.73;0.70;;;4.20;99.90;;;5.05;85.64;96984.66;5033034;28;20021;-82
2020/12/28 09:02:57;;;;;;;1.50;0.77;;;4.40;99.90;;;5.28;85.10;96981.25;5033854;28;20029;-84
2020/12/28 09:05:30;;;;;;;1.65;1.00;;;4.50;99.90;;;5.52;84.74;96990.47;5032715;28;20151;-82
2020/12/28 09:07:57;;;;;;;1.90;0.95;;;4.70;99.90;;;5.68;84.24;96999.00;5033950;28;20028;-82
2020/12/28 09:10:23;;;;;;;1.45;0.85;;;4.80;99.90;;;5.73;83.13;96996.53;5033060;28;20033;-83
2020/12/28 09:12:49;;;;;;;2.00;0.60;;;5.00;99.90;;;5.86;82.03;97007.88;5032221;28;20056;-82
2020/12/28 09:15:16;;;;;;;1.35;0.80;;;5.20;99.90;;;5.93;81.99;97005.03;5033536;28;20147;-82
2020/12/28 09:17:42;;;;;;;1.50;0.70;;;5.30;99.90;;;5.97;81.07;97010.53;5032710;28;20029;-80
2020/12/28 09:20:08;;;;;;;2.72;0.95;;;5.30;99.90;;;6.25;80.58;97019.25;5033677;28;20481;-80
2020/12/28 09:22:34;;;;;;;0.93;0.60;;;5.50;99.90;;;5.97;79.79;97016.84;5033258;28;20139;-82
2020/12/28 09:25:00;;;;;;;0.65;0.65;;;5.50;99.90;;;5.98;79.78;97017.63;5033678;28;20044;-82
2020/12/28 09:27:27;;;;;;;2.17;0.80;;;5.40;99.90;;;5.62;80.71;97017.25;5033503;28;20029;-80
2020/12/28 09:29:53;;;;;;;1.42;0.65;;;5.20;99.90;;;5.79;81.61;97019.00;5033305;28;20033;-82
2020/12/28 09:32:19;;;;;;;6.43;1.00;;;5.10;99.90;;;6.03;79.73;97012.44;5033565;28;20025;-82
2020/12/28 09:34:45;;;;;;;2.13;0.90;;;5.40;99.90;;;6.55;77.84;97015.63;5034879;28;20080;-85
2020/12/28 09:37:10;;;;;;;5.25;1.33;;;5.70;99.90;;;6.70;76.36;97005.91;5034148;28;20133;-83
2020/12/28 09:39:37;;;;;;;0.93;0.70;;;6.00;99.90;;;6.99;77.35;97006.22;5042695;28;20039;-80
2020/12/28 09:42:05;;;;;;;0.85;0.73;;;6.20;99.90;;;6.96;75.10;97014.59;5052323;28;20042;-81
2020/12/28 09:44:31;;;;;;;3.40;0.82;;;6.40;99.90;;;6.84;75.84;97010.41;5036512;28;20604;-80
2020/12/28 09:47:10;;;;;;;1.77;0.57;;;6.40;99.90;;;6.96;75.72;97004.28;5036050;28;20029;-79
2020/12/28 09:49:36;;;;;;;3.33;0.60;;;6.50;99.90;;;7.31;74.06;97003.66;5032141;28;20033;-78
2020/12/28 09:52:02;;;;;;;6.00;0.82;;;6.70;99.90;;;7.65;75.40;96997.06;5031102;28;20093;-81
2020/12/28 09:54:27;;;;;;;1.45;0.60;;;6.90;99.90;;;7.74;72.25;97006.38;5033204;28;20535;-78
2020/12/28 09:56:56;;;;;;;3.08;0.60;;;7.10;99.90;;;7.54;72.80;97000.06;5033211;28;20072;-82
2020/12/28 09:59:22;;;;;;;4.45;0.60;;;7.10;99.90;;;7.55;73.18;96996.06;5035551;28;20030;-80
2020/12/28 10:01:47;;;;;;;1.05;0.50;;;7.10;99.90;;;7.37;73.51;96995.63;5032915;28;20032;-82
2020/12/28 10:04:13;;;;;;;1.20;0.70;;;7.00;99.90;;;7.27;73.57;96991.03;5047508;28;20512;-80
2020/12/28 10:06:40;;;;;;;2.70;0.60;;;6.90;99.90;;;6.70;75.39;96999.56;5047760;28;20511;-81
2020/12/28 10:09:11;;;;;;;1.80;0.52;;;6.50;99.90;;;6.79;75.36;96999.81;5032545;28;20025;-80
2020/12/28 10:11:38;;;;;;;0.75;0.60;;;6.40;99.90;;;7.05;74.56;97001.75;5047973;28;20033;-79
2020/12/28 10:14:05;;;;;;;1.50;0.80;;;6.50;99.90;;;6.90;75.13;97003.19;5048568;28;20057;-77
2020/12/28 10:16:32;;;;;;;1.00;0.82;;;6.50;99.90;;;7.15;73.81;97016.63;5047821;28;20026;-80
2020/12/28 10:19:00;;;;;;;1.13;0.45;;;6.60;99.90;;;7.03;74.38;97011.72;5033291;28;20020;-78
2020/12/28 10:21:29;;;;;;;0.98;0.50;;;6.60;99.90;;;7.24;74.45;97014.88;5048445;28;20087;-82
2020/12/28 10:23:56;;;;;;;1.23;0.43;;;6.70;99.90;;;7.36;73.93;97024.56;5034054;28;20068;-83
2020/12/28 10:26:28;;;;;;;0.85;0.55;;;6.80;99.90;;;7.03;73.64;97022.81;5047897;28;20029;-81
2020/12/28 10:28:57;;;;;;;1.95;0.73;;;6.60;99.90;;;6.57;75.39;97026.31;5044900;28;20033;-81
2020/12/28 10:31:24;;;;;;;1.40;0.60;;;6.30;99.90;;;6.65;74.70;97024.97;5034662;28;20033;-82
2020/12/28 10:33:51;;;;;;;1.35;0.55;;;6.20;99.90;;;6.95;73.47;97013.81;5049965;28;20045;-82
2020/12/28 10:36:24;;;;;;;2.58;0.73;;;6.40;99.90;;;6.95;74.38;97013.00;5032934;28;20029;-80